Time;durP1;ratioP1;P1;durP2;ratioP2;P2;SDS_P1;SDS_P2;PMS_P1;PMS_P2;Temp;Humidity;BMP_temperature;BMP_pressure;BME280_temperature;BME280_humidity;BME280_pressure;Samples;Min_cycle;Max_cycle;Signal;HPM_P1;HPM_P2
2023/07/05 00:00:35;;;;;;;10.40;5.45;;;16.00;99.90;;;;;;5099534;28;20044;-58
2023/07/05 00:03:01;;;;;;;10.05;5.57;;;15.90;99.90;;;;;;5100389;28;20098;-57
2023/07/05 00:05:26;;;;;;;11.27;5.65;;;15.90;99.90;;;;;;5100909;28;20056;-57
2023/07/05 00:07:52;;;;;;;13.60;6.03;;;15.90;99.90;;;;;;5098673;28;20032;-57
2023/07/05 00:10:19;;;;;;;11.07;6.25;;;15.90;99.90;;;;;;5101123;28;20044;-57
2023/07/05 00:12:44;;;;;;;10.63;6.20;;;15.90;99.90;;;;;;5098245;28;20044;-57
2023/07/05 00:15:10;;;;;;;14.80;6.82;;;15.90;99.90;;;;;;5101199;28;20046;-57
2023/07/05 00:17:36;;;;;;;13.13;6.65;;;15.90;99.90;;;;;;5098938;28;20417;-57
2023/07/05 00:20:04;;;;;;;14.20;6.70;;;15.90;99.90;;;;;;5100494;28;20047;-57
2023/07/05 00:22:30;;;;;;;11.90;6.32;;;15.90;99.90;;;;;;5100937;28;20052;-57
2023/07/05 00:24:56;;;;;;;8.23;6.18;;;15.90;99.90;;;;;;5098539;28;20435;-58
2023/07/05 00:27:25;;;;;;;11.77;6.65;;;15.90;99.90;;;;;;5101151;28;20032;-59
2023/07/05 00:29:53;;;;;;;10.85;6.20;;;15.90;99.90;;;;;;5096902;28;20051;-57
2023/07/05 00:32:19;;;;;;;17.75;6.55;;;15.90;99.90;;;;;;5101035;28;20481;-58
2023/07/05 00:34:45;;;;;;;14.68;7.22;;;15.90;99.90;;;;;;5099049;28;20067;-58
2023/07/05 00:37:10;;;;;;;16.73;7.22;;;15.90;99.90;;;;;;5100451;28;20512;-58
2023/07/05 00:39:36;;;;;;;13.63;6.82;;;15.90;99.90;;;;;;5100175;28;20059;-57
2023/07/05 00:42:03;;;;;;;15.13;7.05;;;15.90;99.90;;;;;;5101950;28;20047;-58
2023/07/05 00:44:29;;;;;;;14.23;7.10;;;15.90;99.90;;;;;;5103239;28;20104;-58
2023/07/05 00:47:23;;;;;;;13.95;7.80;;;15.90;99.90;;;;;;5101506;28;20368;-57
2023/07/05 00:49:48;;;;;;;18.02;8.55;;;15.90;99.90;;;;;;5104306;28;20040;-57
2023/07/05 00:52:17;;;;;;;17.08;8.07;;;15.90;99.90;;;;;;5102034;28;20044;-56
2023/07/05 00:54:51;;;;;;;21.90;8.38;;;15.90;99.90;;;;;;5102610;28;20066;-58
2023/07/05 00:57:44;;;;;;;15.18;8.85;;;15.90;99.90;;;;;;5104500;28;20044;-60
2023/07/05 01:00:16;;;;;;;16.52;8.77;;;15.80;99.90;;;;;;5098656;28;20063;-59
2023/07/05 01:02:46;;;;;;;17.10;8.52;;;15.80;99.90;;;;;;5104155;28;20115;-58
2023/07/05 01:05:12;;;;;;;17.60;10.10;;;15.80;99.90;;;;;;5103176;28;20051;-57
2023/07/05 01:07:38;;;;;;;18.95;9.15;;;15.70;99.90;;;;;;5102092;28;20047;-57
2023/07/05 01:10:07;;;;;;;20.15;9.43;;;15.70;99.90;;;;;;5103636;28;20415;-61
2023/07/05 01:12:44;;;;;;;15.50;8.88;;;15.70;99.90;;;;;;5101228;28;20065;-66
2023/07/05 01:15:18;;;;;;;18.85;9.52;;;15.70;99.90;;;;;;5104015;28;20051;-59
2023/07/05 01:18:04;;;;;;;20.80;9.75;;;15.60;99.90;;;;;;5102423;28;20133;-62
2023/07/05 01:20:46;;;;;;;15.65;9.90;;;15.60;99.90;;;;;;5101913;28;20440;-62
2023/07/05 01:23:39;;;;;;;16.10;10.57;;;15.60;99.90;;;;;;5103864;28;20044;-63
2023/07/05 01:26:50;;;;;;;19.92;10.20;;;15.50;99.90;;;;;;5101343;28;20044;-59
2023/07/05 01:29:30;;;;;;;17.10;9.50;;;15.50;99.90;;;;;;5087713;28;20051;-58
2023/07/05 01:32:29;;;;;;;19.40;9.38;;;15.50;99.90;;;;;;5103649;28;20044;-60
2023/07/05 01:34:58;;;;;;;15.10;9.82;;;15.50;99.90;;;;;;5100409;28;20096;-60
2023/07/05 01:37:36;;;;;;;19.98;10.90;;;15.50;99.90;;;;;;5102260;28;20054;-60
2023/07/05 01:40:34;;;;;;;18.35;10.57;;;15.50;99.90;;;;;;5103227;28;20110;-59
2023/07/05 01:43:03;;;;;;;17.83;9.57;;;15.50;99.90;;;;;;5100651;28;20043;-59
2023/07/05 01:45:52;;;;;;;20.52;10.68;;;15.50;99.90;;;;;;5103144;28;20048;-60
2023/07/05 01:48:21;;;;;;;25.50;11.13;;;15.50;99.90;;;;;;5103477;28;20059;-60
2023/07/05 01:50:54;;;;;;;22.52;10.93;;;15.40;99.90;;;;;;5100325;28;20469;-57
2023/07/05 01:53:32;;;;;;;19.77;10.57;;;15.40;99.90;;;;;;5103356;28;20036;-64
2023/07/05 01:56:11;;;;;;;19.45;10.57;;;15.50;99.90;;;;;;5100682;28;20535;-59
2023/07/05 01:58:42;;;;;;;19.30;10.75;;;15.40;99.90;;;;;;5102360;28;20043;-59
2023/07/05 02:01:11;;;;;;;17.38;10.90;;;15.40;99.90;;;;;;5103177;28;20044;-61
2023/07/05 02:03:38;;;;;;;26.25;11.30;;;15.30;99.90;;;;;;5100185;28;20044;-61
2023/07/05 02:06:05;;;;;;;19.27;11.43;;;15.30;99.90;;;;;;5101340;28;20074;-61
2023/07/05 02:08:36;;;;;;;18.90;11.30;;;15.30;99.90;;;;;;5100182;28;20119;-58
2023/07/05 02:11:02;;;;;;;21.92;11.73;;;15.30;99.90;;;;;;5102741;28;20039;-57
2023/07/05 02:13:28;;;;;;;20.38;12.25;;;15.30;99.90;;;;;;5101674;28;20453;-57
2023/07/05 02:15:54;;;;;;;17.65;11.40;;;15.30;99.90;;;;;;5101477;28;20048;-57
2023/07/05 02:18:20;;;;;;;21.95;12.73;;;15.20;99.90;;;;;;5102998;28;20097;-57
2023/07/05 02:20:45;;;;;;;22.85;11.57;;;15.30;99.90;;;;;;5099907;28;20043;-59
2023/07/05 02:23:11;;;;;;;17.77;11.57;;;15.30;99.90;;;;;;5102966;28;20086;-61
2023/07/05 02:25:37;;;;;;;16.30;11.57;;;15.20;99.90;;;;;;5099751;28;20047;-59
2023/07/05 02:28:07;;;;;;;20.10;11.13;;;15.20;99.90;;;;;;5102614;28;20036;-59
2023/07/05 02:30:37;;;;;;;19.02;11.45;;;15.30;99.90;;;;;;5101038;28;20054;-60
2023/07/05 02:33:03;;;;;;;25.98;12.98;;;15.20;99.90;;;;;;5101260;28;20040;-63
2023/07/05 02:35:28;;;;;;;17.98;11.90;;;15.20;99.90;;;;;;5102398;28;20507;-60
2023/07/05 02:37:55;;;;;;;21.88;13.15;;;15.20;99.90;;;;;;5099614;28;20123;-60
2023/07/05 02:40:22;;;;;;;21.02;13.30;;;15.20;99.90;;;;;;5101048;28;20130;-57
2023/07/05 02:42:48;;;;;;;20.88;13.43;;;15.10;99.90;;;;;;5099538;28;20095;-59
2023/07/05 02:45:14;;;;;;;23.75;13.65;;;15.10;99.90;;;;;;5101117;28;20052;-60
2023/07/05 02:47:39;;;;;;;23.00;13.75;;;15.10;99.90;;;;;;5100579;28;20044;-59
2023/07/05 02:50:05;;;;;;;24.27;14.38;;;15.10;99.90;;;;;;5101124;28;20732;-60
2023/07/05 02:52:31;;;;;;;20.17;12.95;;;15.20;99.90;;;;;;5102352;28;20447;-60
2023/07/05 02:54:56;;;;;;;19.02;13.60;;;15.20;99.90;;;;;;5099385;28;20040;-60
2023/07/05 02:57:22;;;;;;;23.38;13.77;;;15.20;99.90;;;;;;5102221;28;20129;-59
2023/07/05 02:59:47;;;;;;;22.83;13.73;;;15.20;99.90;;;;;;5099442;28;20397;-59
2023/07/05 03:02:13;;;;;;;27.23;13.15;;;15.20;99.90;;;;;;5101965;28;20649;-60
2023/07/05 03:04:42;;;;;;;19.05;13.73;;;15.30;99.90;;;;;;5098927;28;20055;-60
2023/07/05 03:07:08;;;;;;;22.15;13.60;;;15.20;99.90;;;;;;5099825;28;20097;-59
2023/07/05 03:09:33;;;;;;;21.98;14.30;;;15.20;99.90;;;;;;5100220;28;20044;-59
2023/07/05 03:11:59;;;;;;;21.95;14.00;;;15.20;99.90;;;;;;5132071;27;20044;-60
2023/07/05 03:14:25;;;;;;;21.20;13.88;;;15.20;99.90;;;;;;5101921;28;20048;-56
2023/07/05 03:16:51;;;;;;;21.75;14.15;;;15.20;99.90;;;;;;5099079;28;20161;-57
2023/07/05 03:19:16;;;;;;;22.15;13.38;;;15.20;99.90;;;;;;5102018;28;20284;-58
2023/07/05 03:21:43;;;;;;;22.27;14.05;;;15.20;99.90;;;;;;5099270;28;20046;-59
2023/07/05 03:24:08;;;;;;;19.73;13.32;;;15.30;99.90;;;;;;5101578;28;20099;-60
2023/07/05 03:26:34;;;;;;;18.23;13.50;;;15.30;99.90;;;;;;5100980;28;20086;-60
2023/07/05 03:29:02;;;;;;;18.73;12.88;;;15.30;99.90;;;;;;5099544;28;20254;-60
2023/07/05 03:31:28;;;;;;;16.15;11.27;;;15.30;99.90;;;;;;5101576;28;20050;-60
2023/07/05 03:33:53;;;;;;;19.77;12.35;;;15.40;99.90;;;;;;5098638;28;20108;-59
2023/07/05 03:36:20;;;;;;;18.27;11.77;;;15.40;99.90;;;;;;5101869;28;20044;-59
2023/07/05 03:38:49;;;;;;;17.38;11.25;;;15.40;99.90;;;;;;5098904;28;20044;-58
2023/07/05 03:41:21;;;;;;;15.93;11.30;;;15.40;99.90;;;;;;5101182;28;20418;-58
2023/07/05 03:43:48;;;;;;;19.38;11.30;;;15.40;99.90;;;;;;5101202;28;20044;-57
2023/07/05 03:46:15;;;;;;;14.63;11.63;;;15.40;99.90;;;;;;5099158;28;20040;-57
2023/07/05 03:48:43;;;;;;;16.15;10.15;;;15.40;99.90;;;;;;5101599;28;20071;-58
2023/07/05 03:51:14;;;;;;;17.77;10.00;;;15.50;99.90;;;;;;5098515;28;20586;-58
2023/07/05 03:53:40;;;;;;;14.05;9.20;;;15.40;99.90;;;;;;5101610;28;20048;-58
2023/07/05 03:56:08;;;;;;;14.02;8.15;;;15.40;99.90;;;;;;5099338;28;20052;-57
2023/07/05 03:58:34;;;;;;;9.48;6.70;;;15.50;99.90;;;;;;5100687;28;20040;-58
2023/07/05 04:01:04;;;;;;;12.48;7.22;;;15.50;99.90;;;;;;5101079;28;20495;-57
2023/07/05 04:03:31;;;;;;;14.25;7.32;;;15.40;99.90;;;;;;5098661;28;20500;-57
2023/07/05 04:05:57;;;;;;;15.73;6.20;;;15.40;99.90;;;;;;5101010;28;20060;-58
2023/07/05 04:08:23;;;;;;;13.30;5.80;;;15.50;99.90;;;;;;5098684;28;20044;-57
2023/07/05 04:10:49;;;;;;;7.45;5.05;;;15.50;99.90;;;;;;5100871;28;20036;-57
2023/07/05 04:13:15;;;;;;;7.53;4.13;;;15.50;99.90;;;;;;5099022;28;20043;-56
2023/07/05 04:15:40;;;;;;;7.95;4.32;;;15.40;99.90;;;;;;5103603;28;20044;-57
2023/07/05 04:18:06;;;;;;;7.90;4.47;;;15.40;99.90;;;;;;5103634;28;20051;-57
2023/07/05 04:20:32;;;;;;;7.40;4.07;;;15.30;99.90;;;;;;5102419;28;20040;-57
2023/07/05 04:22:59;;;;;;;10.80;4.50;;;15.20;99.90;;;;;;5104874;28;20047;-57
2023/07/05 04:25:25;;;;;;;6.80;4.55;;;15.20;99.90;;;;;;5101982;28;20503;-57
2023/07/05 04:27:51;;;;;;;7.78;4.50;;;15.10;99.90;;;;;;5103535;28;20044;-58
2023/07/05 04:30:17;;;;;;;8.48;4.38;;;15.00;99.90;;;;;;5101260;28;20105;-57
2023/07/05 04:32:42;;;;;;;6.68;4.65;;;14.90;99.90;;;;;;5104028;28;20059;-58
2023/07/05 04:35:08;;;;;;;7.57;4.57;;;14.90;99.90;;;;;;5104174;28;20526;-57
2023/07/05 04:37:34;;;;;;;6.90;4.68;;;14.80;99.90;;;;;;5102576;28;20391;-57
2023/07/05 04:39:59;;;;;;;9.00;5.15;;;14.80;99.90;;;;;;5104450;28;20115;-58
2023/07/05 04:42:25;;;;;;;9.95;5.30;;;14.70;99.90;;;;;;5100390;28;20048;-57
2023/07/05 04:44:51;;;;;;;8.07;5.25;;;14.60;99.90;;;;;;5104482;28;20051;-57
2023/07/05 04:47:16;;;;;;;7.68;5.05;;;14.60;99.90;;;;;;5101894;28;20048;-57
2023/07/05 04:49:42;;;;;;;9.85;5.22;;;14.60;99.90;;;;;;5104346;28;20100;-57
2023/07/05 04:52:08;;;;;;;6.57;4.45;;;14.50;99.90;;;;;;5103487;28;20048;-56
2023/07/05 04:54:33;;;;;;;6.15;4.95;;;14.50;99.90;;;;;;5102445;28;20046;-57
2023/07/05 04:56:59;;;;;;;7.90;4.93;;;14.50;99.90;;;;;;5104228;28;20044;-58
2023/07/05 04:59:28;;;;;;;7.07;5.03;;;14.50;99.90;;;;;;5101617;28;20040;-57
2023/07/05 05:01:54;;;;;;;6.38;5.00;;;14.50;99.90;;;;;;5103121;28;20147;-57
2023/07/05 05:04:19;;;;;;;6.70;4.68;;;14.40;99.90;;;;;;5101286;28;20531;-57
2023/07/05 05:06:45;;;;;;;6.22;4.80;;;14.50;99.90;;;;;;5104180;28;20058;-57
2023/07/05 05:09:11;;;;;;;6.57;4.20;;;14.50;99.90;;;;;;5102611;28;20040;-56
2023/07/05 05:11:36;;;;;;;7.22;4.38;;;14.50;99.90;;;;;;5102239;28;20048;-56
2023/07/05 05:14:02;;;;;;;9.02;4.85;;;14.60;99.90;;;;;;5104347;28;20095;-60
2023/07/05 05:16:27;;;;;;;6.57;4.38;;;14.60;99.90;;;;;;5101197;28;20043;-57
2023/07/05 05:18:53;;;;;;;7.38;4.75;;;14.60;99.90;;;;;;5103919;28;20047;-58
2023/07/05 05:21:19;;;;;;;6.72;4.38;;;14.60;99.90;;;;;;5101236;28;20072;-58
2023/07/05 05:23:44;;;;;;;7.45;4.43;;;14.60;99.90;;;;;;5103873;28;20413;-58
2023/07/05 05:26:11;;;;;;;7.00;4.45;;;14.60;99.90;;;;;;5101172;28;20048;-57
2023/07/05 05:28:37;;;;;;;6.75;4.03;;;14.70;99.90;;;;;;5102519;28;20036;-58
2023/07/05 05:31:09;;;;;;;7.05;4.55;;;14.70;99.90;;;;;;5103663;28;20044;-58
2023/07/05 05:33:35;;;;;;;5.32;3.88;;;14.60;99.90;;;;;;5100879;28;20119;-57
2023/07/05 05:36:01;;;;;;;6.53;4.47;;;14.70;99.90;;;;;;5103827;28;20047;-58
2023/07/05 05:38:27;;;;;;;7.40;3.88;;;14.70;99.90;;;;;;5099497;28;20040;-58
2023/07/05 05:41:01;;;;;;;8.70;4.28;;;14.70;99.90;;;;;;5103137;28;20059;-57
2023/07/05 05:43:26;;;;;;;6.28;3.33;;;14.80;99.90;;;;;;5102340;28;20044;-56
2023/07/05 05:45:52;;;;;;;6.25;3.55;;;14.80;99.90;;;;;;5101717;28;20044;-57
2023/07/05 05:48:18;;;;;;;7.72;4.20;;;14.80;99.90;;;;;;5103432;28;20077;-57
2023/07/05 05:50:43;;;;;;;10.30;4.93;;;14.80;99.90;;;;;;5100350;28;20040;-57
2023/07/05 05:53:12;;;;;;;9.85;4.45;;;14.80;99.90;;;;;;5103293;28;20051;-57
2023/07/05 05:55:39;;;;;;;9.38;4.30;;;14.80;99.90;;;;;;5100679;28;20032;-57
2023/07/05 05:58:05;;;;;;;6.28;4.45;;;14.80;99.90;;;;;;5103356;28;20125;-57
2023/07/05 06:00:32;;;;;;;6.95;4.22;;;14.80;99.90;;;;;;5101605;28;20047;-56
2023/07/05 06:02:58;;;;;;;10.75;3.90;;;14.90;99.90;;;;;;5101561;28;20434;-57
2023/07/05 06:05:24;;;;;;;8.93;4.15;;;15.00;99.90;;;;;;5102825;28;20107;-57
2023/07/05 06:07:50;;;;;;;7.78;3.72;;;15.20;99.90;;;;;;5099838;28;20051;-56
2023/07/05 06:10:15;;;;;;;7.00;3.90;;;15.60;99.90;;;;;;5102850;28;20125;-57
2023/07/05 06:12:41;;;;;;;4.90;3.03;;;15.30;99.90;;;;;;5100033;28;20064;-57
2023/07/05 06:15:11;;;;;;;7.63;4.40;;;15.20;99.90;;;;;;5101481;28;20048;-57
2023/07/05 06:17:37;;;;;;;6.50;3.92;;;15.20;99.90;;;;;;5101105;28;20047;-56
2023/07/05 06:20:05;;;;;;;5.85;4.22;;;15.10;99.90;;;;;;5101770;28;20044;-57
2023/07/05 06:22:32;;;;;;;6.75;4.32;;;15.10;99.90;;;;;;5102990;28;20369;-57
2023/07/05 06:24:58;;;;;;;8.00;4.40;;;15.10;99.90;;;;;;5099854;28;20048;-57
2023/07/05 06:27:23;;;;;;;6.15;4.07;;;15.10;99.90;;;;;;5102727;28;20051;-57
2023/07/05 06:29:49;;;;;;;9.50;4.07;;;15.10;99.90;;;;;;5099777;28;20040;-57
2023/07/05 06:32:15;;;;;;;8.38;3.85;;;15.10;99.90;;;;;;5102500;28;20035;-57
2023/07/05 06:34:40;;;;;;;7.45;3.85;;;15.10;99.90;;;;;;5100402;28;20064;-57
2023/07/05 06:37:06;;;;;;;7.28;3.88;;;15.20;99.90;;;;;;5101345;28;20052;-57
2023/07/05 06:39:32;;;;;;;8.70;3.80;;;15.20;99.90;;;;;;5101964;28;20047;-58
2023/07/05 06:41:57;;;;;;;7.60;4.00;;;15.20;99.90;;;;;;5099708;28;20206;-57
2023/07/05 06:44:23;;;;;;;6.90;3.63;;;15.20;99.90;;;;;;5102241;28;20097;-57
2023/07/05 06:46:49;;;;;;;10.45;3.78;;;15.20;99.90;;;;;;5099386;28;20119;-57
2023/07/05 06:49:15;;;;;;;4.75;3.42;;;15.20;99.90;;;;;;5102455;28;20055;-57
2023/07/05 06:51:41;;;;;;;7.18;3.78;;;15.30;99.90;;;;;;5099960;28;20237;-57
2023/07/05 06:54:06;;;;;;;6.60;3.38;;;15.30;99.90;;;;;;5101676;28;20051;-57
2023/07/05 06:56:33;;;;;;;4.40;3.05;;;15.40;99.90;;;;;;5101544;28;20093;-57
2023/07/05 06:58:59;;;;;;;4.20;2.45;;;15.40;99.90;;;;;;5099838;28;20040;-57
2023/07/05 07:01:25;;;;;;;6.75;2.80;;;15.40;99.90;;;;;;5101969;28;20040;-58
2023/07/05 07:03:51;;;;;;;4.60;2.72;;;15.40;99.90;;;;;;5099013;28;20042;-57
2023/07/05 07:06:18;;;;;;;5.88;3.40;;;15.40;99.90;;;;;;5101779;28;20125;-57
2023/07/05 07:08:43;;;;;;;8.85;3.90;;;15.30;99.90;;;;;;5097843;28;20524;-59
2023/07/05 07:11:11;;;;;;;6.22;3.60;;;15.20;99.90;;;;;;5101336;28;20104;-57
2023/07/05 07:13:37;;;;;;;6.63;3.03;;;15.00;99.90;;;;;;5101058;28;20488;-56
2023/07/05 07:16:09;;;;;;;4.13;2.63;;;14.90;99.90;;;;;;5099820;28;20032;-57
2023/07/05 07:18:36;;;;;;;6.88;3.90;;;14.70;99.90;;;;;;5101752;28;20108;-57
2023/07/05 07:21:02;;;;;;;6.82;3.50;;;14.50;99.90;;;;;;5098970;28;20584;-57
2023/07/05 07:23:28;;;;;;;3.25;1.77;;;14.40;99.90;;;;;;5101652;28;20062;-57
2023/07/05 07:26:12;;;;;;;3.55;2.00;;;14.20;99.90;;;;;;5099214;28;20040;-57
2023/07/05 07:28:39;;;;;;;3.88;1.70;;;14.00;99.90;;;;;;5100454;28;20047;-56
2023/07/05 07:31:25;;;;;;;5.18;1.73;;;13.70;99.90;;;;;;5101466;28;20055;-56
2023/07/05 07:33:52;;;;;;;6.78;1.60;;;13.50;99.90;;;;;;5098580;28;20270;-56
2023/07/05 07:36:29;;;;;;;3.97;1.38;;;13.30;99.90;;;;;;5101516;28;20127;-56
2023/07/05 07:38:56;;;;;;;3.08;1.17;;;13.20;99.90;;;;;;5099707;28;20071;-60
2023/07/05 07:41:24;;;;;;;3.20;1.25;;;13.00;99.90;;;;;;5100455;28;20044;-59
2023/07/05 07:43:55;;;;;;;3.85;1.45;;;12.90;99.90;;;;;;5101358;28;20040;-59
2023/07/05 07:46:24;;;;;;;3.08;0.93;;;12.80;99.90;;;;;;5098813;28;20083;-57
2023/07/05 07:48:53;;;;;;;2.97;1.00;;;12.70;99.90;;;;;;5101582;28;20044;-57
2023/07/05 07:51:21;;;;;;;3.33;1.00;;;12.60;99.90;;;;;;5102888;28;20119;-58
2023/07/05 07:53:47;;;;;;;1.98;1.00;;;12.60;99.90;;;;;;5105553;28;20032;-57
2023/07/05 07:56:15;;;;;;;6.25;1.55;;;12.60;99.90;;;;;;5104067;28;20047;-57
2023/07/05 07:58:42;;;;;;;2.53;1.10;;;12.50;99.90;;;;;;5104069;28;20095;-58
2023/07/05 08:01:15;;;;;;;3.15;0.90;;;12.50;99.90;;;;;;5105598;28;20036;-58
2023/07/05 08:03:41;;;;;;;3.75;0.90;;;12.40;99.90;;;;;;5102466;28;20085;-57
2023/07/05 08:06:07;;;;;;;3.55;1.02;;;12.40;99.90;;;;;;5105195;28;20048;-57
2023/07/05 08:08:34;;;;;;;3.65;1.17;;;12.50;99.90;;;;;;5101472;28;20182;-58
2023/07/05 08:11:02;;;;;;;4.53;1.10;;;12.50;99.90;;;;;;5105100;28;20549;-56
2023/07/05 08:13:29;;;;;;;1.67;0.80;;;12.50;99.90;;;;;;5104232;28;20040;-56
2023/07/05 08:15:56;;;;;;;3.35;1.25;;;12.50;99.90;;;;;;5103174;28;20123;-57
2023/07/05 08:18:22;;;;;;;3.75;0.98;;;12.50;99.90;;;;;;5105264;28;20056;-56
2023/07/05 08:20:47;;;;;;;5.95;1.10;;;12.60;99.90;;;;;;5102223;28;20089;-57
2023/07/05 08:23:13;;;;;;;3.90;1.42;;;12.50;99.90;;;;;;5104953;28;20049;-57
2023/07/05 08:25:43;;;;;;;4.15;1.42;;;12.50;99.90;;;;;;5102149;28;20069;-57
2023/07/05 08:28:11;;;;;;;5.32;1.30;;;12.40;99.90;;;;;;5104870;28;20051;-57
2023/07/05 08:30:39;;;;;;;7.00;1.50;;;12.40;99.90;;;;;;5104011;28;20048;-56
2023/07/05 08:33:06;;;;;;;4.18;1.80;;;12.30;99.90;;;;;;5102668;28;20115;-57
2023/07/05 08:35:33;;;;;;;3.80;1.30;;;12.30;99.90;;;;;;5104914;28;20111;-57
2023/07/05 08:37:59;;;;;;;6.20;1.90;;;12.30;99.90;;;;;;5101824;28;20048;-57
2023/07/05 08:40:35;;;;;;;4.93;1.60;;;12.30;99.90;;;;;;5104327;28;20411;-57
2023/07/05 08:43:04;;;;;;;4.65;1.55;;;12.30;99.90;;;;;;5102367;28;20027;-56
2023/07/05 08:45:56;;;;;;;6.68;2.05;;;12.30;99.90;;;;;;5103868;28;20069;-56
2023/07/05 08:48:22;;;;;;;8.30;2.08;;;12.30;99.90;;;;;;5104522;28;20047;-56
2023/07/05 08:50:55;;;;;;;4.63;1.88;;;12.20;99.90;;;;;;5101658;28;20075;-56
2023/07/05 08:53:21;;;;;;;9.23;2.47;;;12.20;99.90;;;;;;5104483;28;20048;-57
2023/07/05 08:55:55;;;;;;;7.43;2.28;;;12.10;99.90;;;;;;5101982;28;20499;-56
2023/07/05 08:58:36;;;;;;;10.00;2.80;;;12.10;99.90;;;;;;5103661;28;20047;-56
2023/07/05 09:01:05;;;;;;;13.48;3.20;;;12.20;99.90;;;;;;5103277;28;20074;-56
2023/07/05 09:03:32;;;;;;;11.38;2.90;;;12.10;99.90;;;;;;5101279;28;20047;-56
2023/07/05 09:06:22;;;;;;;12.80;3.10;;;12.20;99.90;;;;;;5104072;28;20081;-55
2023/07/05 09:08:49;;;;;;;14.93;3.50;;;12.20;99.90;;;;;;5102042;28;20052;-55
2023/07/05 09:11:25;;;;;;;15.20;4.47;;;12.20;99.90;;;;;;5103032;28;20040;-55
2023/07/05 09:14:12;;;;;;;19.30;3.63;;;12.20;99.90;;;;;;5104066;28;20051;-55
2023/07/05 09:17:01;;;;;;;14.32;3.70;;;12.20;99.90;;;;;;5101215;28;20036;-59
2023/07/05 09:19:42;;;;;;;16.27;3.72;;;12.20;99.90;;;;;;5103843;28;20048;-57
2023/07/05 09:22:11;;;;;;;17.40;3.45;;;12.10;99.90;;;;;;5103199;28;20055;-56
2023/07/05 09:24:44;;;;;;;17.70;3.53;;;12.10;99.90;;;;;;5101599;28;20428;-57
2023/07/05 09:27:27;;;;;;;14.65;3.78;;;12.10;99.90;;;;;;5104131;28;20040;-56
2023/07/05 09:30:14;;;;;;;15.20;4.10;;;12.10;99.90;;;;;;5100772;28;20053;-57
2023/07/05 09:32:47;;;;;;;21.40;3.75;;;12.20;99.90;;;;;;5103109;28;20119;-56
2023/07/05 09:35:21;;;;;;;14.25;3.65;;;12.20;99.90;;;;;;5103654;28;20358;-55
2023/07/05 09:38:15;;;;;;;13.90;3.42;;;12.20;99.90;;;;;;5100914;28;20076;-55
2023/07/05 09:40:50;;;;;;;17.58;2.67;;;12.20;99.90;;;;;;5103629;28;20032;-54
2023/07/05 09:43:32;;;;;;;11.57;2.80;;;12.30;99.90;;;;;;5100854;28;20043;-58
2023/07/05 09:46:22;;;;;;;9.55;2.97;;;11.80;99.90;;;;;;5101251;28;20044;-58
2023/07/05 09:48:49;;;;;;;14.75;3.58;;;12.30;99.90;;;;;;5087998;28;20052;-58
2023/07/05 09:51:16;;;;;;;13.02;3.03;;;12.30;99.90;;;;;;5099307;28;20054;-58
2023/07/05 09:53:48;;;;;;;12.30;2.30;;;12.30;99.90;;;;;;5102186;28;20055;-56
2023/07/05 09:56:17;;;;;;;10.23;2.83;;;12.30;99.90;;;;;;5100705;28;20609;-58
2023/07/05 09:58:44;;;;;;;10.85;2.80;;;12.30;99.90;;;;;;5101339;28;20036;-56
2023/07/05 10:01:17;;;;;;;18.27;3.83;;;12.30;99.90;;;;;;5103098;28;20044;-58
2023/07/05 10:04:00;;;;;;;14.10;3.10;;;12.40;99.90;;;;;;5100339;28;20118;-57
2023/07/05 10:06:28;;;;;;;12.45;3.10;;;12.30;99.90;;;;;;5103028;28;20052;-58
2023/07/05 10:08:55;;;;;;;9.90;3.00;;;12.30;99.90;;;;;;5100005;28;20250;-57
2023/07/05 10:11:27;;;;;;;14.52;3.20;;;12.40;99.90;;;;;;5101573;28;20040;-58
2023/07/05 10:14:10;;;;;;;14.38;2.90;;;12.30;99.90;;;;;;5102540;28;20040;-58
2023/07/05 10:16:45;;;;;;;15.60;3.40;;;12.30;99.90;;;;;;5100293;28;20070;-58
2023/07/05 10:19:28;;;;;;;12.60;2.90;;;12.40;99.90;;;;;;5102991;28;20050;-56
2023/07/05 10:22:22;;;;;;;10.48;2.95;;;12.40;99.90;;;;;;5101517;28;20046;-55
2023/07/05 10:24:51;;;;;;;15.02;3.50;;;12.40;99.90;;;;;;5094020;28;20258;-55
2023/07/05 10:27:19;;;;;;;10.45;2.92;;;12.40;99.90;;;;;;5101456;28;20042;-56
2023/07/05 10:29:48;;;;;;;14.98;3.42;;;12.40;99.90;;;;;;5098380;28;20047;-59
2023/07/05 10:32:18;;;;;;;12.25;2.80;;;12.40;99.90;;;;;;5102525;28;20036;-58
2023/07/05 10:34:48;;;;;;;15.68;3.78;;;12.40;99.90;;;;;;5101417;28;20111;-58
2023/07/05 10:37:29;;;;;;;18.30;3.38;;;12.40;99.90;;;;;;5100790;28;20051;-57
2023/07/05 10:39:56;;;;;;;11.52;3.60;;;12.30;99.90;;;;;;5102103;28;20103;-57
2023/07/05 10:42:24;;;;;;;16.83;3.38;;;12.30;99.90;;;;;;5099628;28;20036;-58
2023/07/05 10:44:50;;;;;;;16.15;3.70;;;12.30;99.90;;;;;;5102176;28;20054;-57
2023/07/05 10:47:17;;;;;;;17.50;3.35;;;12.30;99.90;;;;;;5099904;28;20040;-54
2023/07/05 10:49:44;;;;;;;14.88;3.30;;;12.30;99.90;;;;;;5100308;28;20040;-55
2023/07/05 10:52:15;;;;;;;15.05;3.17;;;12.30;99.90;;;;;;5102005;28;20040;-55
2023/07/05 10:54:53;;;;;;;12.35;2.70;;;12.30;99.90;;;;;;5099509;28;20036;-55
2023/07/05 10:57:34;;;;;;;13.90;3.00;;;12.40;99.90;;;;;;5102068;28;20096;-56
2023/07/05 11:00:11;;;;;;;11.50;2.53;;;12.30;99.90;;;;;;5099591;28;20050;-55
2023/07/05 11:02:44;;;;;;;12.88;3.00;;;12.30;99.90;;;;;;5101188;28;20084;-57
2023/07/05 11:05:19;;;;;;;18.55;3.13;;;12.30;99.90;;;;;;5101925;28;20404;-58
2023/07/05 11:07:49;;;;;;;8.68;2.05;;;12.20;99.90;;;;;;5099131;28;20393;-57
2023/07/05 11:10:15;;;;;;;10.63;2.45;;;12.20;99.90;;;;;;5101751;28;20036;-58
2023/07/05 11:12:42;;;;;;;9.57;2.60;;;12.20;99.90;;;;;;5097914;28;20051;-57
2023/07/05 11:15:15;;;;;;;13.38;2.80;;;12.20;99.90;;;;;;5100701;28;20032;-57
2023/07/05 11:17:42;;;;;;;11.90;2.72;;;12.10;99.90;;;;;;5100829;28;20044;-55
2023/07/05 11:20:32;;;;;;;9.13;2.45;;;12.20;99.90;;;;;;5099698;28;20036;-55
2023/07/05 11:22:58;;;;;;;9.85;2.17;;;12.20;99.90;;;;;;5083731;28;20050;-54
2023/07/05 11:25:59;;;;;;;9.48;2.10;;;12.20;99.90;;;;;;5096913;28;20040;-55
2023/07/05 11:28:40;;;;;;;9.85;2.13;;;12.20;99.90;;;;;;5100556;28;20036;-55
2023/07/05 11:31:30;;;;;;;6.25;1.85;;;12.10;99.90;;;;;;5101817;28;20531;-55
2023/07/05 11:34:21;;;;;;;7.68;2.25;;;12.20;99.90;;;;;;5083178;28;20125;-55
2023/07/05 11:37:10;;;;;;;8.40;2.50;;;12.20;99.90;;;;;;5099836;28;20048;-56
2023/07/05 11:39:41;;;;;;;16.35;2.50;;;12.20;99.90;;;;;;5087658;28;20044;-55
2023/07/05 11:42:13;;;;;;;15.90;2.90;;;12.20;99.90;;;;;;5097199;28;20044;-55
2023/07/05 11:44:48;;;;;;;16.08;3.25;;;12.10;99.90;;;;;;5100350;28;20044;-56
2023/07/05 11:47:22;;;;;;;14.38;3.15;;;12.30;99.90;;;;;;5099160;28;20524;-56
2023/07/05 11:50:02;;;;;;;16.35;3.75;;;12.40;99.90;;;;;;5100556;28;20070;-56
2023/07/05 11:52:33;;;;;;;12.93;3.13;;;12.40;99.90;;;;;;5101607;28;20048;-57
2023/07/05 11:55:14;;;;;;;14.90;3.45;;;12.50;99.90;;;;;;5097184;28;20047;-57
2023/07/05 11:58:03;;;;;;;9.23;2.55;;;12.50;99.90;;;;;;5100171;28;20056;-57
2023/07/05 12:00:38;;;;;;;15.05;3.65;;;12.50;99.90;;;;;;5100200;28;20114;-55
2023/07/05 12:03:13;;;;;;;12.82;3.22;;;12.50;99.90;;;;;;5099137;28;20055;-55
2023/07/05 12:05:40;;;;;;;14.45;3.13;;;12.50;99.90;;;;;;5101227;28;20098;-56
2023/07/05 12:08:26;;;;;;;11.25;3.08;;;12.50;99.90;;;;;;5098346;28;20109;-57
2023/07/05 12:10:54;;;;;;;;;;;12.50;99.90;;;;;;5101603;28;20071;-56
2023/07/05 12:13:22;;;;;;;15.23;3.90;;;12.50;99.90;;;;;;5100051;28;19966;-56
2023/07/05 12:15:49;;;;;;;12.68;4.32;;;12.50;99.90;;;;;;5099739;28;20059;-56
2023/07/05 12:18:15;;;;;;;16.80;4.00;;;12.60;99.90;;;;;;5101234;28;20048;-56
2023/07/05 12:20:43;;;;;;;15.85;4.10;;;12.60;99.90;;;;;;5096902;28;20051;-56
2023/07/05 12:23:14;;;;;;;13.23;4.28;;;13.10;99.90;;;;;;5101235;28;20055;-56
2023/07/05 12:25:45;;;;;;;16.10;3.72;;;12.60;99.90;;;;;;5098379;28;20044;-56
2023/07/05 12:28:15;;;;;;;19.48;4.40;;;12.70;99.90;;;;;;5100813;28;20048;-56
2023/07/05 12:30:41;;;;;;;20.00;4.20;;;12.70;99.90;;;;;;5100512;28;20040;-56
2023/07/05 12:33:21;;;;;;;17.05;4.32;;;12.80;99.90;;;;;;5098501;28;20061;-57
2023/07/05 12:36:02;;;;;;;15.90;4.30;;;12.90;99.90;;;;;;5101213;28;20175;-57
2023/07/05 12:38:27;;;;;;;21.95;4.50;;;13.00;99.90;;;;;;5100754;28;20153;-57
2023/07/05 12:40:55;;;;;;;16.08;4.50;;;13.10;99.90;;;;;;5103219;28;20032;-57
2023/07/05 12:43:28;;;;;;;17.48;4.70;;;13.10;99.90;;;;;;5102099;28;20052;-54
2023/07/05 12:46:08;;;;;;;22.83;4.88;;;13.10;99.90;;;;;;5102370;28;20099;-57
2023/07/05 12:48:36;;;;;;;17.33;4.72;;;13.20;99.90;;;;;;5104596;28;20051;-57
2023/07/05 12:51:13;;;;;;;12.10;4.10;;;13.20;99.90;;;;;;5101936;28;20043;-57
2023/07/05 12:53:39;;;;;;;19.00;4.40;;;13.40;99.90;;;;;;5104507;28;20499;-57